Time;durP1;ratioP1;P1;durP2;ratioP2;P2;SDS_P1;SDS_P2;PMS_P1;PMS_P2;Temp;Humidity;BMP_temperature;BMP_pressure;BME280_temperature;BME280_humidity;BME280_pressure;Samples;Min_cycle;Max_cycle;Signal;HPM_P1;HPM_P2
2022/10/08 00:02:13;;;;;;;;;;;;;;;28.62;30.45;101378.56;5058272;28;1217;-43
2022/10/08 00:04:39;;;;;;;;;;;;;;;28.60;30.41;101374.19;5057781;28;1017;-42
2022/10/08 00:07:04;;;;;;;;;;;;;;;28.61;30.55;101372.34;5058423;28;1159;-41
2022/10/08 00:09:29;;;;;;;;;;;;;;;28.57;30.42;101377.25;5058372;28;1087;-41
2022/10/08 00:11:56;;;;;;;;;;;;;;;28.61;30.58;101366.91;5057744;28;1231;-41
2022/10/08 00:14:22;;;;;;;;;;;;;;;28.58;30.66;101361.84;5058119;28;1175;-42
2022/10/08 00:16:47;;;;;;;;;;;;;;;28.55;30.74;101368.47;5057946;28;1119;-40
2022/10/08 00:19:13;;;;;;;;;;;;;;;28.58;30.70;101369.94;5057624;28;1909;-42
2022/10/08 00:21:39;;;;;;;;;;;;;;;28.60;30.57;101357.94;5057568;28;1263;-42
2022/10/08 00:24:04;;;;;;;;;;;;;;;28.63;30.70;101364.84;5057774;28;1128;-42
2022/10/08 00:26:31;;;;;;;;;;;;;;;28.67;30.51;101363.50;5057397;28;1179;-41
2022/10/08 00:28:56;;;;;;;;;;;;;;;28.67;30.61;101363.50;5057930;28;1111;-41
2022/10/08 00:31:26;;;;;;;;;;;;;;;28.62;30.76;101360.47;5057393;28;1100;-42
2022/10/08 00:33:53;;;;;;;;;;;;;;;28.66;30.85;101363.66;5056880;28;1211;-42
2022/10/08 00:36:19;;;;;;;;;;;;;;;28.53;31.30;101361.56;5057670;28;1226;-41
2022/10/08 00:38:44;;;;;;;;;;;;;;;28.44;31.29;101364.31;5057054;28;1951;-41
2022/10/08 00:41:16;;;;;;;;;;;;;;;28.49;31.60;101361.06;5057530;28;1104;-39
2022/10/08 00:43:45;;;;;;;;;;;;;;;28.50;31.26;101353.75;5057707;28;1139;-40
2022/10/08 00:46:24;;;;;;;;;;;;;;;28.53;31.30;101348.03;5056936;28;1108;-40
2022/10/08 00:49:12;;;;;;;;;;;;;;;28.55;31.48;101354.06;5089214;28;1170;-39
2022/10/08 00:51:39;;;;;;;;;;;;;;;28.51;31.52;101347.34;5051221;28;1428;-39
2022/10/08 00:54:04;;;;;;;;;;;;;;;28.53;31.48;101353.44;5056892;28;1135;-40
2022/10/08 00:56:30;;;;;;;;;;;;;;;28.44;31.63;101356.19;5089961;28;1135;-40
2022/10/08 00:58:55;;;;;;;;;;;;;;;28.46;31.79;101348.72;5057019;28;1885;-40
2022/10/08 01:01:21;;;;;;;;;;;;;;;28.42;31.60;101339.28;5089152;28;1199;-40
2022/10/08 01:03:47;;;;;;;;;;;;;;;28.48;31.76;101341.25;5056607;28;1148;-40
2022/10/08 01:06:18;;;;;;;;;;;;;;;28.46;31.57;101334.34;5057168;28;1159;-40
2022/10/08 01:08:46;;;;;;;;;;;;;;;28.47;31.44;101336.88;5056951;28;1111;-40
2022/10/08 01:11:18;;;;;;;;;;;;;;;28.39;31.61;101322.53;5056864;28;1142;-39
2022/10/08 01:13:59;;;;;;;;;;;;;;;28.39;31.70;101331.53;5056704;28;1206;-42
2022/10/08 01:16:53;;;;;;;;;;;;;;;28.42;31.83;101325.75;5089083;28;888;-42
2022/10/08 01:19:24;;;;;;;;;;;;;;;28.40;31.71;101318.81;5038746;28;1902;-41
2022/10/08 01:21:52;;;;;;;;;;;;;;;28.52;31.57;101314.69;5056798;28;1326;-41
2022/10/08 01:24:17;;;;;;;;;;;;;;;28.48;31.63;101316.06;5056359;28;1107;-40
2022/10/08 01:27:12;;;;;;;;;;;;;;;28.54;31.66;101319.91;5056938;28;1115;-42
2022/10/08 01:29:41;;;;;;;;;;;;;;;28.47;31.61;101317.94;5049943;28;1276;-41
2022/10/08 01:32:07;;;;;;;;;;;;;;;28.50;31.70;101318.59;5056903;28;968;-39
2022/10/08 01:34:37;;;;;;;;;;;;;;;28.46;31.73;101315.41;5089088;28;1104;-40
2022/10/08 01:37:02;;;;;;;;;;;;;;;28.40;31.89;101316.97;5088970;28;1107;-41
2022/10/08 01:39:29;;;;;;;;;;;;;;;28.35;31.96;101316.66;5088229;28;1906;-41
2022/10/08 01:41:57;;;;;;;;;;;;;;;28.40;31.73;101321.50;5089252;28;1095;-39
2022/10/08 01:44:32;;;;;;;;;;;;;;;28.40;31.78;101310.69;5056113;28;1214;-40
2022/10/08 01:46:58;;;;;;;;;;;;;;;28.36;31.68;101307.53;5056188;28;908;-39
2022/10/08 01:49:24;;;;;;;;;;;;;;;28.31;31.78;101304.47;5056866;28;1143;-40
2022/10/08 01:51:53;;;;;;;;;;;;;;;28.40;31.43;101302.56;5056112;28;1091;-39
2022/10/08 01:54:18;;;;;;;;;;;;;;;28.28;31.70;101299.41;5088339;28;1142;-39
2022/10/08 01:56:44;;;;;;;;;;;;;;;28.29;31.94;101303.81;5056824;28;1128;-41
2022/10/08 01:59:09;;;;;;;;;;;;;;;28.28;31.83;101302.94;5055961;28;1906;-40
2022/10/08 02:01:49;;;;;;;;;;;;;;;28.16;31.93;101305.19;5056426;28;1144;-41
2022/10/08 02:04:34;;;;;;;;;;;;;;;28.26;31.99;101294.16;5056003;28;1451;-41
2022/10/08 02:07:20;;;;;;;;;;;;;;;28.29;31.59;101293.84;5056205;28;1124;-41
2022/10/08 02:09:52;;;;;;;;;;;;;;;28.33;31.74;101297.03;5056127;28;1132;-41
2022/10/08 02:12:17;;;;;;;;;;;;;;;28.34;31.62;101296.03;5056040;28;1124;-42
2022/10/08 02:14:44;;;;;;;;;;;;;;;28.40;31.41;101289.91;5056038;28;1127;-42
2022/10/08 02:17:17;;;;;;;;;;;;;;;28.35;31.42;101295.84;5087809;28;893;-41
2022/10/08 02:19:45;;;;;;;;;;;;;;;27.91;31.45;101205.28;5088251;28;1902;-41
2022/10/08 02:22:11;;;;;;;;;;;;;;;28.38;31.66;101294.63;5056118;28;1139;-42
2022/10/08 02:24:37;;;;;;;;;;;;;;;28.42;31.46;101289.72;5055826;28;1186;-43
2022/10/08 02:27:03;;;;;;;;;;;;;;;28.44;31.42;101290.38;5055505;28;1166;-41
2022/10/08 02:29:32;;;;;;;;;;;;;;;28.41;31.52;101291.56;5088287;28;888;-40
2022/10/08 02:32:23;;;;;;;;;;;;;;;28.36;31.55;101294.81;5055626;28;1166;-41
2022/10/08 02:34:54;;;;;;;;;;;;;;;28.38;31.51;101288.41;5054656;28;1231;-40
2022/10/08 02:37:23;;;;;;;;;;;;;;;28.34;31.72;101296.03;5055361;28;1127;-41
2022/10/08 02:39:50;;;;;;;;;;;;;;;28.28;31.94;101289.44;5087904;28;1909;-41
2022/10/08 02:42:16;;;;;;;;;;;;;;;28.34;31.61;101288.72;5054969;28;1171;-41
2022/10/08 02:44:46;;;;;;;;;;;;;;;28.33;31.76;101280.78;5087688;28;1214;-41
2022/10/08 02:47:14;;;;;;;;;;;;;;;28.29;31.47;101277.59;5073286;28;1111;-42
2022/10/08 02:49:40;;;;;;;;;;;;;;;28.29;31.77;101285.72;5087942;28;1159;-41
2022/10/08 02:52:05;;;;;;;;;;;;;;;28.38;31.62;101281.09;5052757;28;2245;-40
2022/10/08 02:54:32;;;;;;;;;;;;;;;28.26;31.75;101279.81;5087884;28;1973;-42
2022/10/08 02:56:58;;;;;;;;;;;;;;;28.26;31.96;101285.22;5056015;28;1821;-41
2022/10/08 02:59:24;;;;;;;;;;;;;;;28.16;32.78;101280.88;5090474;28;2066;-42
2022/10/08 03:01:49;;;;;;;;;;;;;;;28.08;32.71;101273.63;5065735;28;2204;-39
2022/10/08 03:04:20;;;;;;;;;;;;;;;28.14;32.96;101277.50;5056683;28;1814;-50
2022/10/08 03:06:47;;;;;;;;;;;;;;;27.59;32.69;101266.56;5055717;28;1757;-47
2022/10/08 03:09:12;;;;;;;;;;;;;;;27.33;33.31;101281.13;5059208;28;1166;-44
2022/10/08 03:11:38;;;;;;;;;;;;;;;27.18;33.19;101278.28;5081201;28;1193;-42
2022/10/08 03:14:03;;;;;;;;;;;;;;;27.13;33.14;101281.50;5036578;28;1200;-42
2022/10/08 03:16:36;;;;;;;;;;;;;;;27.10;33.10;101273.72;5043639;28;1207;-42
2022/10/08 03:19:01;;;;;;;;;;;;;;;26.99;33.26;101274.91;5058503;28;1961;-42
2022/10/08 03:21:27;;;;;;;;;;;;;;;26.98;32.97;101265.94;5079973;28;1250;-43
2022/10/08 03:23:52;;;;;;;;;;;;;;;26.89;32.93;101257.00;5038252;28;1262;-43
2022/10/08 03:26:17;;;;;;;;;;;;;;;26.87;33.30;101263.59;5038548;28;1195;-42
2022/10/08 03:28:43;;;;;;;;;;;;;;;26.80;32.80;101259.88;5045120;28;1258;-43
2022/10/08 03:31:08;;;;;;;;;;;;;;;26.82;33.35;101265.94;5058066;28;1273;-43
2022/10/08 03:33:33;;;;;;;;;;;;;;;26.87;33.10;101255.50;5058560;28;1183;-42
2022/10/08 03:35:59;;;;;;;;;;;;;;;27.02;33.26;101247.59;5058831;28;1198;-42
2022/10/08 03:38:24;;;;;;;;;;;;;;;26.99;32.85;101256.00;5058565;28;2101;-42
2022/10/08 03:40:53;;;;;;;;;;;;;;;26.86;33.20;101251.13;5058391;28;1902;-42
2022/10/08 03:43:18;;;;;;;;;;;;;;;26.80;33.56;101254.47;5058496;28;1147;-42
2022/10/08 03:45:50;;;;;;;;;;;;;;;26.74;33.35;101256.00;5058446;28;1166;-43
2022/10/08 03:48:16;;;;;;;;;;;;;;;26.16;33.83;101259.41;5058371;28;1120;-42
2022/10/08 03:50:49;;;;;;;;;;;;;;;25.26;36.29;101251.56;5058561;28;1123;-41
2022/10/08 03:53:14;;;;;;;;;;;;;;;24.85;37.15;101260.13;5058222;28;1099;-46
2022/10/08 03:55:40;;;;;;;;;;;;;;;24.93;36.90;101257.56;5058612;28;1147;-45
2022/10/08 03:58:05;;;;;;;;;;;;;;;25.06;36.14;101250.91;5057891;28;1084;-45
2022/10/08 04:00:30;;;;;;;;;;;;;;;24.75;36.56;101252.16;5057871;28;1898;-43
2022/10/08 04:02:55;;;;;;;;;;;;;;;24.52;37.21;101257.16;5058343;28;1096;-43
2022/10/08 04:05:21;;;;;;;;;;;;;;;24.63;36.87;101253.38;5057751;28;1127;-43
2022/10/08 04:07:46;;;;;;;;;;;;;;;24.72;36.53;101257.84;5051329;28;2508;-44
2022/10/08 04:10:11;;;;;;;;;;;;;;;24.44;36.99;101261.44;5049969;28;1116;-44
2022/10/08 04:12:37;;;;;;;;;;;;;;;24.19;37.50;101257.66;5057814;28;1119;-44
2022/10/08 04:15:02;;;;;;;;;;;;;;;24.19;37.40;101249.59;5047886;28;1091;-43
2022/10/08 04:17:27;;;;;;;;;;;;;;;24.16;37.35;101256.09;5048050;28;1219;-45
2022/10/08 04:19:53;;;;;;;;;;;;;;;24.42;36.71;101251.84;5057472;28;2229;-44
2022/10/08 04:22:18;;;;;;;;;;;;;;;24.09;37.47;101258.50;5057392;28;1119;-45
2022/10/08 04:24:43;;;;;;;;;;;;;;;24.27;37.13;101267.66;5057470;28;1103;-45
2022/10/08 04:27:08;;;;;;;;;;;;;;;24.38;36.95;101261.19;5057764;28;1092;-44
2022/10/08 04:29:34;;;;;;;;;;;;;;;24.43;36.77;101258.91;5056890;28;1139;-43
2022/10/08 04:31:59;;;;;;;;;;;;;;;24.49;36.88;101268.22;5057594;28;1076;-43
2022/10/08 04:34:26;;;;;;;;;;;;;;;25.11;35.80;101259.34;5057803;28;1254;-41
2022/10/08 04:36:51;;;;;;;;;;;;;;;25.46;35.18;101269.38;5056852;28;2370;-44
2022/10/08 04:39:16;;;;;;;;;;;;;;;25.87;34.87;101272.31;5057523;28;1902;-42
2022/10/08 04:41:42;;;;;;;;;;;;;;;26.01;34.10;101269.97;5057038;28;1163;-42
2022/10/08 04:44:07;;;;;;;;;;;;;;;25.95;34.25;101270.63;5056811;28;1147;-42
2022/10/08 04:46:32;;;;;;;;;;;;;;;26.04;34.01;101272.38;5042917;28;1163;-41
2022/10/08 04:48:58;;;;;;;;;;;;;;;26.08;33.86;101267.47;5057986;28;1144;-41
2022/10/08 04:51:24;;;;;;;;;;;;;;;26.14;33.77;101275.75;5056965;28;1163;-40
2022/10/08 04:53:49;;;;;;;;;;;;;;;26.21;33.34;101270.53;5056959;28;1071;-40
2022/10/08 04:56:19;;;;;;;;;;;;;;;26.31;33.57;101283.88;5056949;28;1179;-41
2022/10/08 04:58:45;;;;;;;;;;;;;;;26.31;33.98;101281.19;5056403;28;1894;-41
2022/10/08 05:01:11;;;;;;;;;;;;;;;26.39;33.61;101283.13;5057343;28;1131;-40
2022/10/08 05:03:37;;;;;;;;;;;;;;;26.31;33.75;101289.28;5056697;28;1163;-42
2022/10/08 05:06:02;;;;;;;;;;;;;;;26.38;33.73;101284.09;5056933;28;1186;-40
2022/10/08 05:08:28;;;;;;;;;;;;;;;26.37;33.24;101287.81;5057046;28;2524;-41
2022/10/08 05:10:53;;;;;;;;;;;;;;;26.36;33.81;101286.97;5056971;28;1146;-39
2022/10/08 05:13:18;;;;;;;;;;;;;;;26.51;33.89;101289.00;5056405;28;1234;-38
2022/10/08 05:15:43;;;;;;;;;;;;;;;26.55;34.37;101287.69;5055074;28;1095;-38
2022/10/08 05:18:09;;;;;;;;;;;;;;;26.63;34.08;101290.41;5048789;28;907;-38
2022/10/08 05:20:35;;;;;;;;;;;;;;;26.60;34.54;101288.03;5042949;28;1914;-39
2022/10/08 05:23:00;;;;;;;;;;;;;;;26.61;34.23;101292.41;5050772;28;1093;-38
2022/10/08 05:25:25;;;;;;;;;;;;;;;26.67;34.33;101295.47;5048523;28;1115;-39
2022/10/08 05:27:50;;;;;;;;;;;;;;;26.73;34.06;101289.38;5056092;28;1139;-42
2022/10/08 05:30:16;;;;;;;;;;;;;;;26.75;34.49;101293.63;5056809;28;933;-39
2022/10/08 05:32:41;;;;;;;;;;;;;;;26.75;34.10;101292.78;5056237;28;1064;-40
2022/10/08 05:35:07;;;;;;;;;;;;;;;26.71;34.13;101294.94;5056496;28;1143;-39
2022/10/08 05:37:32;;;;;;;;;;;;;;;26.74;34.44;101293.78;5054483;28;1833;-39
2022/10/08 05:39:57;;;;;;;;;;;;;;;26.81;34.15;101297.50;5056225;28;1967;-39
2022/10/08 05:42:23;;;;;;;;;;;;;;;26.79;34.23;101307.63;5055660;28;900;-39
2022/10/08 05:44:48;;;;;;;;;;;;;;;26.84;34.03;101312.53;5056539;28;1134;-39
2022/10/08 05:47:13;;;;;;;;;;;;;;;26.81;34.07;101308.28;5047382;28;1178;-40
2022/10/08 05:49:38;;;;;;;;;;;;;;;26.87;34.15;101306.78;5051576;28;1088;-39
2022/10/08 05:52:04;;;;;;;;;;;;;;;26.90;34.15;101301.03;5056108;28;1139;-40
2022/10/08 05:54:29;;;;;;;;;;;;;;;26.92;33.89;101292.78;5055712;28;928;-40
2022/10/08 05:56:55;;;;;;;;;;;;;;;26.92;34.26;101304.44;5056159;28;1119;-39
2022/10/08 05:59:21;;;;;;;;;;;;;;;26.97;34.39;101302.06;5056131;28;1890;-39
2022/10/08 06:01:46;;;;;;;;;;;;;;;26.90;33.36;101304.59;5056149;28;1107;-40
2022/10/08 06:04:11;;;;;;;;;;;;;;;26.85;34.71;101298.00;5056208;28;1135;-40
2022/10/08 06:06:37;;;;;;;;;;;;;;;26.73;34.18;101308.28;5055769;28;2256;-39
2022/10/08 06:09:02;;;;;;;;;;;;;;;26.71;33.98;101311.16;5042047;28;1193;-39
2022/10/08 06:11:28;;;;;;;;;;;;;;;26.80;33.87;101309.31;5047398;28;1111;-41
2022/10/08 06:13:54;;;;;;;;;;;;;;;26.97;34.11;101303.91;5050945;28;1265;-40
2022/10/08 06:16:19;;;;;;;;;;;;;;;27.08;34.12;101305.44;5055644;28;1405;-40
2022/10/08 06:18:45;;;;;;;;;;;;;;;27.07;33.50;101310.03;5055736;28;1917;-41
2022/10/08 06:21:11;;;;;;;;;;;;;;;27.08;33.92;101308.16;5055937;28;1296;-41
2022/10/08 06:23:36;;;;;;;;;;;;;;;27.08;33.96;101308.16;5055725;28;1484;-40
2022/10/08 06:26:02;;;;;;;;;;;;;;;27.07;33.86;101312.72;5056239;28;1120;-39
2022/10/08 06:28:28;;;;;;;;;;;;;;;27.08;33.77;101308.16;5055945;28;1111;-40
2022/10/08 06:30:53;;;;;;;;;;;;;;;27.19;33.43;101312.38;5055181;28;1115;-40
2022/10/08 06:33:18;;;;;;;;;;;;;;;27.18;33.30;101306.13;5058900;28;1471;-40
2022/10/08 06:35:44;;;;;;;;;;;;;;;27.20;33.90;101304.13;5059685;28;1135;-40
2022/10/08 06:38:09;;;;;;;;;;;;;;;27.19;33.83;101305.13;5054926;28;1838;-40
2022/10/08 06:40:38;;;;;;;;;;;;;;;27.19;33.84;101301.59;5050039;28;1960;-39
2022/10/08 06:43:06;;;;;;;;;;;;;;;27.19;33.32;101297.03;5059453;28;1567;-39
2022/10/08 06:45:32;;;;;;;;;;;;;;;27.22;33.47;101296.69;5059814;28;1108;-39
2022/10/08 06:47:57;;;;;;;;;;;;;;;27.24;33.67;101300.03;5059796;28;1080;-40
2022/10/08 06:50:22;;;;;;;;;;;;;;;27.20;33.77;101287.91;5059566;28;1080;-40
2022/10/08 06:52:48;;;;;;;;;;;;;;;27.28;33.81;101278.94;5059819;28;1159;-39
2022/10/08 06:55:13;;;;;;;;;;;;;;;27.22;33.51;101279.63;5059419;28;1171;-40
2022/10/08 06:57:38;;;;;;;;;;;;;;;27.29;33.39;101282.50;5059131;28;1225;-40
2022/10/08 07:00:04;;;;;;;;;;;;;;;27.28;33.58;101275.41;5058747;28;1890;-40
2022/10/08 07:02:29;;;;;;;;;;;;;;;27.26;33.55;101283.66;5059560;28;1100;-40
2022/10/08 07:04:55;;;;;;;;;;;;;;;27.28;33.50;101287.03;5058973;28;1100;-40
2022/10/08 07:07:20;;;;;;;;;;;;;;;27.44;33.63;101290.75;5058785;28;1841;-40
2022/10/08 07:09:46;;;;;;;;;;;;;;;27.49;33.17;101291.06;5059251;28;1175;-40
2022/10/08 07:12:12;;;;;;;;;;;;;;;27.43;33.28;101292.59;5058420;28;1186;-39
2022/10/08 07:14:37;;;;;;;;;;;;;;;27.28;33.75;101284.34;5058731;28;1127;-40
2022/10/08 07:17:03;;;;;;;;;;;;;;;27.31;33.59;101283.19;5058864;28;1238;-39
2022/10/08 07:19:28;;;;;;;;;;;;;;;27.32;33.79;101288.41;5055390;28;1898;-40
2022/10/08 07:21:53;;;;;;;;;;;;;;;27.28;33.50;101278.13;5058965;28;1182;-39
2022/10/08 07:24:18;;;;;;;;;;;;;;;27.26;33.87;101278.25;5058796;28;1171;-40
2022/10/08 07:26:44;;;;;;;;;;;;;;;27.37;33.83;101277.94;5059005;28;1143;-38
2022/10/08 07:29:12;;;;;;;;;;;;;;;27.45;33.92;101276.22;5058718;28;1139;-39
2022/10/08 07:31:38;;;;;;;;;;;;;;;27.43;33.64;101276.38;5058885;28;878;-40
2022/10/08 07:34:04;;;;;;;;;;;;;;;27.46;33.70;101270.63;5058760;28;1215;-40
2022/10/08 07:36:29;;;;;;;;;;;;;;;27.45;33.58;101271.66;5058602;28;2553;-40
2022/10/08 07:38:55;;;;;;;;;;;;;;;27.45;33.45;101268.09;5058456;28;1902;-39
2022/10/08 07:41:20;;;;;;;;;;;;;;;27.44;33.71;101261.03;5058823;28;1139;-39
2022/10/08 07:43:48;;;;;;;;;;;;;;;27.38;33.94;101251.75;5057704;28;1002;-39
2022/10/08 07:46:14;;;;;;;;;;;;;;;27.38;33.88;101252.59;5044438;28;1186;-38
2022/10/08 07:48:39;;;;;;;;;;;;;;;27.43;33.98;101253.91;5058237;28;1111;-39
2022/10/08 07:51:11;;;;;;;;;;;;;;;27.56;33.73;101253.41;5058530;28;1154;-39
2022/10/08 07:53:37;;;;;;;;;;;;;;;27.55;33.44;101252.53;5058441;28;1285;-39
2022/10/08 07:56:03;;;;;;;;;;;;;;;27.58;33.28;101248.63;5046605;28;949;-38
2022/10/08 07:58:28;;;;;;;;;;;;;;;27.53;33.49;101251.03;5055723;28;1198;-39
2022/10/08 08:00:57;;;;;;;;;;;;;;;27.67;33.79;101244.06;5058198;28;1981;-39
2022/10/08 08:03:22;;;;;;;;;;;;;;;27.62;33.35;101250.84;5054007;28;1163;-39
2022/10/08 08:05:47;;;;;;;;;;;;;;;27.58;33.76;101235.97;5058389;28;1170;-39
2022/10/08 08:08:12;;;;;;;;;;;;;;;27.55;33.54;101243.59;5057343;28;2573;-38
2022/10/08 08:10:38;;;;;;;;;;;;;;;27.59;33.67;101242.22;5058339;28;1103;-39
2022/10/08 08:13:03;;;;;;;;;;;;;;;27.62;33.51;101234.63;5050210;28;1287;-39
2022/10/08 08:15:28;;;;;;;;;;;;;;;27.63;33.69;101240.84;5051354;28;1128;-39
2022/10/08 08:17:54;;;;;;;;;;;;;;;27.61;33.45;101240.22;5057827;28;1139;-39
2022/10/08 08:20:19;;;;;;;;;;;;;;;27.71;33.28;101243.56;5057269;28;1942;-38
2022/10/08 08:22:44;;;;;;;;;;;;;;;27.71;33.48;101251.66;5057874;28;1131;-38
2022/10/08 08:25:10;;;;;;;;;;;;;;;27.66;33.55;101243.19;5057659;28;1091;-38
2022/10/08 08:27:35;;;;;;;;;;;;;;;27.69;33.68;101245.63;5056619;28;1092;-39
2022/10/08 08:30:00;;;;;;;;;;;;;;;27.64;33.74;101245.25;5045149;28;1135;-39
2022/10/08 08:32:25;;;;;;;;;;;;;;;27.63;33.80;101232.75;5050779;28;953;-39
2022/10/08 08:34:51;;;;;;;;;;;;;;;27.69;33.95;101237.50;5057556;28;1155;-38
2022/10/08 08:37:16;;;;;;;;;;;;;;;27.66;33.52;101216.19;5055823;28;1861;-38
2022/10/08 08:39:41;;;;;;;;;;;;;;;27.65;33.52;101233.41;5057476;28;1963;-38
2022/10/08 08:42:13;;;;;;;;;;;;;;;27.64;33.67;101226.34;5057441;28;1123;-38
2022/10/08 08:44:39;;;;;;;;;;;;;;;27.58;33.95;101233.28;5056913;28;870;-38
2022/10/08 08:47:06;;;;;;;;;;;;;;;27.54;33.61;101226.56;5082055;28;1162;-39
2022/10/08 08:49:41;;;;;;;;;;;;;;;27.54;33.82;101221.16;5083644;28;1096;-38
2022/10/08 08:52:06;;;;;;;;;;;;;;;27.61;33.81;101226.69;5069164;28;1096;-38
2022/10/08 08:54:32;;;;;;;;;;;;;;;27.65;33.46;101228.00;5049662;28;1108;-39
2022/10/08 08:57:02;;;;;;;;;;;;;;;27.70;33.76;101228.38;5057466;28;1143;-40
2022/10/08 08:59:28;;;;;;;;;;;;;;;27.67;33.74;101220.59;5075084;28;1897;-39
2022/10/08 09:02:00;;;;;;;;;;;;;;;27.63;33.31;101222.78;5083887;28;1127;-38
2022/10/08 09:04:42;;;;;;;;;;;;;;;27.75;33.64;101220.56;5069371;28;1092;-39
2022/10/08 09:07:07;;;;;;;;;;;;;;;27.75;33.72;101211.63;5083249;28;2353;-38
2022/10/08 09:09:37;;;;;;;;;;;;;;;27.75;33.72;101212.47;5082150;28;1283;-37
2022/10/08 09:12:08;;;;;;;;;;;;;;;27.64;33.75;101220.94;5049675;28;1165;-39
2022/10/08 09:14:34;;;;;;;;;;;;;;;27.69;33.53;101218.59;5069167;28;1108;-39
2022/10/08 09:17:08;;;;;;;;;;;;;;;27.68;33.31;101219.59;5081001;28;1151;-39
2022/10/08 09:19:33;;;;;;;;;;;;;;;27.65;32.94;101224.47;5078564;28;2200;-39
2022/10/08 09:21:58;;;;;;;;;;;;;;;27.69;33.10;101220.44;5085876;28;2206;-40
2022/10/08 09:24:24;;;;;;;;;;;;;;;27.66;33.57;101204.53;5087259;28;1958;-40
2022/10/08 09:26:50;;;;;;;;;;;;;;;27.67;33.46;101208.91;5056540;28;2692;-40
2022/10/08 09:29:28;;;;;;;;;;;;;;;27.68;33.46;101202.47;5084479;28;2131;-39
2022/10/08 09:31:54;;;;;;;;;;;;;;;27.67;33.16;101209.78;5055927;28;2290;-38
2022/10/08 09:34:19;;;;;;;;;;;;;;;27.71;32.93;101202.19;5056067;28;1999;-39
2022/10/08 09:36:44;;;;;;;;;;;;;;;27.70;33.44;101193.22;5082164;28;1139;-38
2022/10/08 09:39:22;;;;;;;;;;;;;;;27.66;33.27;101183.75;5048452;28;1901;-40
2022/10/08 09:42:02;;;;;;;;;;;;;;;25.82;34.05;101174.06;5036528;28;1068;-39
2022/10/08 09:44:28;;;;;;;;;;;;;;;24.81;36.18;101186.94;5050148;28;934;-39
2022/10/08 09:47:02;;;;;;;;;;;;;;;24.15;38.18;101180.97;5074661;28;1236;-39
2022/10/08 09:49:31;;;;;;;;;;;;;;;24.01;39.94;101183.16;5056341;28;1148;-39
2022/10/08 09:51:58;;;;;;;;;;;;;;;23.73;41.13;101193.94;5056322;28;1111;-38
2022/10/08 09:54:25;;;;;;;;;;;;;;;23.69;41.50;101187.19;5056282;28;1119;-38
2022/10/08 09:56:52;;;;;;;;;;;;;;;23.64;41.97;101182.25;5056162;28;1210;-38
2022/10/08 09:59:17;;;;;;;;;;;;;;;23.69;41.89;101176.44;5077681;28;1901;-38
2022/10/08 10:01:45;;;;;;;;;;;;;;;24.73;40.38;101165.38;5051852;28;1147;-38
2022/10/08 10:04:16;;;;;;;;;;;;;;;24.55;39.51;101162.72;5082993;28;2585;-38
2022/10/08 10:06:42;;;;;;;;;;;;;;;23.75;40.89;101154.34;5075982;28;1127;-38
2022/10/08 10:09:10;;;;;;;;;;;;;;;23.34;42.07;101155.50;5068762;28;985;-37
2022/10/08 10:11:48;;;;;;;;;;;;;;;23.59;41.85;101169.25;5045448;28;1123;-37
2022/10/08 10:14:17;;;;;;;;;;;;;;;24.99;38.30;101171.81;5056038;28;1168;-38
2022/10/08 10:16:42;;;;;;;;;;;;;;;25.63;37.10;101160.72;5078642;28;1135;-38
2022/10/08 10:19:10;;;;;;;;;;;;;;;26.29;35.68;101161.88;5069655;28;1906;-38
2022/10/08 10:21:47;;;;;;;;;;;;;;;26.60;35.08;101158.53;5080849;28;1138;-39
2022/10/08 10:24:16;;;;;;;;;;;;;;;26.50;35.53;101153.31;5049901;28;1195;-38
2022/10/08 10:26:41;;;;;;;;;;;;;;;26.69;35.16;101159.38;5043694;28;1179;-37
2022/10/08 10:29:16;;;;;;;;;;;;;;;26.59;34.97;101156.81;5056197;28;1155;-38
2022/10/08 10:31:43;;;;;;;;;;;;;;;26.46;35.39;101151.94;5073155;28;1131;-38
2022/10/08 10:34:08;;;;;;;;;;;;;;;26.49;35.38;101143.50;5055582;28;1848;-40
2022/10/08 10:36:35;;;;;;;;;;;;;;;26.77;34.98;101143.16;5055336;28;1154;-40
2022/10/08 10:39:00;;;;;;;;;;;;;;;27.05;34.44;101139.25;5055781;28;1894;-38
2022/10/08 10:41:30;;;;;;;;;;;;;;;26.93;34.74;101143.28;5055706;28;1159;-39
2022/10/08 10:43:59;;;;;;;;;;;;;;;26.78;35.06;101142.13;5084444;28;1135;-41
2022/10/08 10:46:27;;;;;;;;;;;;;;;26.84;35.26;101135.19;5055724;28;1108;-39
2022/10/08 10:48:53;;;;;;;;;;;;;;;26.85;35.23;101130.66;5055502;28;1111;-38
2022/10/08 10:51:23;;;;;;;;;;;;;;;26.89;35.10;101137.41;5055403;28;1119;-38
2022/10/08 10:53:51;;;;;;;;;;;;;;;27.05;34.75;101136.53;5080852;28;1198;-39
2022/10/08 10:56:17;;;;;;;;;;;;;;;27.17;34.23;101130.75;5048893;28;1147;-39
2022/10/08 10:58:48;;;;;;;;;;;;;;;27.06;34.79;101124.72;5055684;28;1211;-38
2022/10/08 11:01:32;;;;;;;;;;;;;;;27.11;34.85;101118.81;5055649;28;1973;-39
2022/10/08 11:03:57;;;;;;;;;;;;;;;27.12;34.81;101118.63;5052248;28;2443;-38
2022/10/08 11:06:25;;;;;;;;;;;;;;;27.12;34.84;101107.84;5055826;28;1143;-38
2022/10/08 11:09:03;;;;;;;;;;;;;;;27.20;34.85;101109.66;5055118;28;1203;-38
2022/10/08 11:11:38;;;;;;;;;;;;;;;27.16;34.59;101094.81;5055406;28;1333;-40
2022/10/08 11:14:27;;;;;;;;;;;;;;;27.13;34.41;101087.06;5072837;28;1210;-39
2022/10/08 11:16:55;;;;;;;;;;;;;;;27.23;34.55;101079.59;5076557;28;1166;-39
2022/10/08 11:19:27;;;;;;;;;;;;;;;27.28;34.27;101089.88;5052237;28;1973;-37
2022/10/08 11:22:11;;;;;;;;;;;;;;;27.29;34.53;101082.63;5058637;28;945;-38
2022/10/08 11:24:54;;;;;;;;;;;;;;;27.31;34.40;101073.31;5058357;28;1147;-37
2022/10/08 11:27:25;;;;;;;;;;;;;;;27.34;34.50;101061.31;5058951;28;1120;-38
2022/10/08 11:30:12;;;;;;;;;;;;;;;27.36;34.27;101062.00;5058758;28;1158;-37
2022/10/08 11:32:38;;;;;;;;;;;;;;;27.35;34.51;101058.44;5084002;28;1209;-38
2022/10/08 11:35:03;;;;;;;;;;;;;;;27.32;34.15;101056.09;5058271;28;2515;-38
2022/10/08 11:37:36;;;;;;;;;;;;;;;27.39;34.32;101048.13;5058848;28;1127;-38
2022/10/08 11:40:02;;;;;;;;;;;;;;;27.36;34.33;101046.59;5076586;28;1964;-39
2022/10/08 11:42:34;;;;;;;;;;;;;;;27.42;34.28;101050.47;5058622;28;1123;-37
2022/10/08 11:45:31;;;;;;;;;;;;;;;27.39;34.62;101043.53;5078830;28;1183;-38
2022/10/08 11:47:57;;;;;;;;;;;;;;;27.42;34.47;101038.81;5026096;28;1262;-39
2022/10/08 11:50:32;;;;;;;;;;;;;;;27.44;34.19;101034.94;5045163;28;1171;-37
2022/10/08 11:52:59;;;;;;;;;;;;;;;27.49;34.27;101024.41;5058177;28;1139;-38
2022/10/08 11:55:26;;;;;;;;;;;;;;;27.46;34.24;101032.88;5058420;28;1119;-37
2022/10/08 11:57:55;;;;;;;;;;;;;;;27.51;34.27;101033.19;5085571;28;888;-38
2022/10/08 12:00:47;;;;;;;;;;;;;;;27.49;34.28;101034.38;5058108;28;1898;-39
2022/10/08 12:03:18;;;;;;;;;;;;;;;27.57;34.30;101025.38;5052764;28;1868;-40
2022/10/08 12:05:44;;;;;;;;;;;;;;;27.60;34.23;101025.88;5056731;28;1190;-38
2022/10/08 12:08:09;;;;;;;;;;;;;;;27.63;34.10;101016.53;5057183;28;1112;-39
2022/10/08 12:10:38;;;;;;;;;;;;;;;27.67;33.78;101015.19;5057569;28;1155;-39
2022/10/08 12:13:12;;;;;;;;;;;;;;;27.69;33.85;101017.72;5082697;28;1109;-39
2022/10/08 12:15:39;;;;;;;;;;;;;;;27.71;33.85;101018.41;5052039;28;1187;-40
2022/10/08 12:18:16;;;;;;;;;;;;;;;27.66;33.75;101018.88;5058139;28;1206;-40
2022/10/08 12:20:42;;;;;;;;;;;;;;;27.68;33.71;101014.19;5057163;28;1898;-39
2022/10/08 12:23:19;;;;;;;;;;;;;;;27.67;34.11;101006.22;5057643;28;1131;-39
2022/10/08 12:25:45;;;;;;;;;;;;;;;27.67;34.01;101001.66;5057737;28;1119;-40
2022/10/08 12:28:19;;;;;;;;;;;;;;;27.73;33.64;101005.53;5043723;28;1108;-40
2022/10/08 12:30:48;;;;;;;;;;;;;;;27.76;33.81;101007.84;5056629;28;943;-40
2022/10/08 12:33:14;;;;;;;;;;;;;;;27.74;33.67;101009.91;5057116;28;1847;-40
2022/10/08 12:35:54;;;;;;;;;;;;;;;27.72;33.91;101011.97;5057057;28;1158;-40
2022/10/08 12:38:25;;;;;;;;;;;;;;;27.72;33.83;101001.16;5075080;28;1183;-38
2022/10/08 12:40:57;;;;;;;;;;;;;;;27.71;34.06;101002.19;5057184;28;1910;-40
2022/10/08 12:43:41;;;;;;;;;;;;;;;27.71;33.94;100986.78;5057110;28;1265;-39
2022/10/08 12:46:16;;;;;;;;;;;;;;;27.73;33.67;100989.31;5056244;28;919;-40
2022/10/08 12:48:52;;;;;;;;;;;;;;;27.80;33.63;100984.88;5037576;28;1178;-40
2022/10/08 12:51:25;;;;;;;;;;;;;;;27.79;33.68;100987.75;5051626;28;1143;-39
2022/10/08 12:53:51;;;;;;;;;;;;;;;27.76;33.77;100986.22;5082144;28;1182;-39